sensor_id;sensor_type;location;lat;lon;timestamp;P1;durP1;ratioP1;P2;durP2;ratioP2
14276;SDS011;7222;57.346;12.150;2023-04-25T00:00:52;25.67;;;18.50;;
14276;SDS011;7222;57.346;12.150;2023-04-25T00:03:20;26.20;;;17.27;;
14276;SDS011;7222;57.346;12.150;2023-04-25T00:05:47;21.77;;;15.23;;
14276;SDS011;7222;57.346;12.150;2023-04-25T00:08:15;25.73;;;19.27;;
14276;SDS011;7222;57.346;12.150;2023-04-25T00:10:42;19.10;;;14.43;;
14276;SDS011;7222;57.346;12.150;2023-04-25T00:13:09;20.90;;;15.07;;
14276;SDS011;7222;57.346;12.150;2023-04-25T00:15:36;22.70;;;17.10;;
14276;SDS011;7222;57.346;12.150;2023-04-25T00:18:03;17.90;;;13.17;;
14276;SDS011;7222;57.346;12.150;2023-04-25T00:20:33;20.97;;;15.73;;
14276;SDS011;7222;57.346;12.150;2023-04-25T00:23:01;21.97;;;16.57;;
14276;SDS011;7222;57.346;12.150;2023-04-25T00:25:28;20.50;;;17.27;;
14276;SDS011;7222;57.346;12.150;2023-04-25T00:27:55;21.47;;;16.40;;
14276;SDS011;7222;57.346;12.150;2023-04-25T00:30:22;16.70;;;12.90;;
14276;SDS011;7222;57.346;12.150;2023-04-25T00:32:49;17.53;;;14.37;;
14276;SDS011;7222;57.346;12.150;2023-04-25T00:35:17;16.80;;;13.00;;
14276;SDS011;7222;57.346;12.150;2023-04-25T00:37:46;15.93;;;12.67;;
14276;SDS011;7222;57.346;12.150;2023-04-25T00:40:13;19.60;;;14.53;;
14276;SDS011;7222;57.346;12.150;2023-04-25T00:42:39;17.27;;;11.07;;
14276;SDS011;7222;57.346;12.150;2023-04-25T00:45:08;15.27;;;11.87;;
14276;SDS011;7222;57.346;12.150;2023-04-25T00:47:39;12.97;;;11.17;;
14276;SDS011;7222;57.346;12.150;2023-04-25T00:50:07;12.90;;;11.43;;
14276;SDS011;7222;57.346;12.150;2023-04-25T00:52:34;13.27;;;10.77;;
14276;SDS011;7222;57.346;12.150;2023-04-25T00:55:04;11.40;;;9.77;;
14276;SDS011;7222;57.346;12.150;2023-04-25T00:57:33;14.27;;;10.67;;
14276;SDS011;7222;57.346;12.150;2023-04-25T01:00:00;15.63;;;13.07;;
14276;SDS011;7222;57.346;12.150;2023-04-25T01:02:27;17.53;;;14.40;;
14276;SDS011;7222;57.346;12.150;2023-04-25T01:04:56;16.13;;;13.63;;
14276;SDS011;7222;57.346;12.150;2023-04-25T01:07:23;13.30;;;11.03;;
14276;SDS011;7222;57.346;12.150;2023-04-25T01:09:51;13.60;;;11.10;;
14276;SDS011;7222;57.346;12.150;2023-04-25T01:12:20;16.97;;;13.90;;
14276;SDS011;7222;57.346;12.150;2023-04-25T01:14:48;18.80;;;15.73;;
14276;SDS011;7222;57.346;12.150;2023-04-25T01:17:15;17.67;;;14.30;;
14276;SDS011;7222;57.346;12.150;2023-04-25T01:19:42;16.33;;;13.30;;
14276;SDS011;7222;57.346;12.150;2023-04-25T01:22:12;12.20;;;10.00;;
14276;SDS011;7222;57.346;12.150;2023-04-25T01:24:39;13.93;;;9.70;;
14276;SDS011;7222;57.346;12.150;2023-04-25T01:27:06;22.03;;;16.03;;
14276;SDS011;7222;57.346;12.150;2023-04-25T01:29:35;24.23;;;17.20;;
14276;SDS011;7222;57.346;12.150;2023-04-25T01:32:03;20.60;;;15.63;;
14276;SDS011;7222;57.346;12.150;2023-04-25T01:34:31;18.23;;;14.27;;
14276;SDS011;7222;57.346;12.150;2023-04-25T01:36:59;17.77;;;13.17;;
14276;SDS011;7222;57.346;12.150;2023-04-25T01:39:28;17.23;;;13.03;;
14276;SDS011;7222;57.346;12.150;2023-04-25T01:41:55;19.67;;;14.57;;
14276;SDS011;7222;57.346;12.150;2023-04-25T01:44:23;21.87;;;16.73;;
14276;SDS011;7222;57.346;12.150;2023-04-25T01:46:50;23.60;;;18.37;;
14276;SDS011;7222;57.346;12.150;2023-04-25T01:49:17;22.30;;;16.27;;
14276;SDS011;7222;57.346;12.150;2023-04-25T01:51:44;24.07;;;18.23;;
14276;SDS011;7222;57.346;12.150;2023-04-25T01:54:11;24.17;;;16.63;;
14276;SDS011;7222;57.346;12.150;2023-04-25T01:56:40;23.40;;;17.43;;
14276;SDS011;7222;57.346;12.150;2023-04-25T01:59:07;25.23;;;17.33;;
14276;SDS011;7222;57.346;12.150;2023-04-25T02:01:34;23.80;;;16.87;;
14276;SDS011;7222;57.346;12.150;2023-04-25T02:04:01;20.97;;;17.13;;
14276;SDS011;7222;57.346;12.150;2023-04-25T02:06:28;25.97;;;18.57;;
14276;SDS011;7222;57.346;12.150;2023-04-25T02:08:55;23.17;;;17.73;;
14276;SDS011;7222;57.346;12.150;2023-04-25T02:11:22;25.77;;;18.93;;
14276;SDS011;7222;57.346;12.150;2023-04-25T02:13:51;25.77;;;18.03;;
14276;SDS011;7222;57.346;12.150;2023-04-25T02:16:18;27.67;;;21.97;;
14276;SDS011;7222;57.346;12.150;2023-04-25T02:18:45;19.37;;;14.17;;
14276;SDS011;7222;57.346;12.150;2023-04-25T02:21:12;25.50;;;18.60;;
14276;SDS011;7222;57.346;12.150;2023-04-25T02:23:40;28.13;;;20.97;;
14276;SDS011;7222;57.346;12.150;2023-04-25T02:26:07;26.53;;;19.77;;
14276;SDS011;7222;57.346;12.150;2023-04-25T02:28:33;29.10;;;20.23;;
14276;SDS011;7222;57.346;12.150;2023-04-25T02:31:03;29.60;;;21.13;;
14276;SDS011;7222;57.346;12.150;2023-04-25T02:33:30;34.40;;;24.50;;
14276;SDS011;7222;57.346;12.150;2023-04-25T02:35:57;28.90;;;20.30;;
14276;SDS011;7222;57.346;12.150;2023-04-25T02:38:24;26.97;;;19.13;;
14276;SDS011;7222;57.346;12.150;2023-04-25T02:40:51;29.03;;;19.47;;
14276;SDS011;7222;57.346;12.150;2023-04-25T02:43:17;32.60;;;23.50;;
14276;SDS011;7222;57.346;12.150;2023-04-25T02:45:45;29.87;;;22.07;;
14276;SDS011;7222;57.346;12.150;2023-04-25T02:48:14;31.13;;;19.77;;
14276;SDS011;7222;57.346;12.150;2023-04-25T02:50:41;34.53;;;23.57;;
14276;SDS011;7222;57.346;12.150;2023-04-25T02:53:07;34.37;;;20.17;;
14276;SDS011;7222;57.346;12.150;2023-04-25T02:55:34;35.17;;;25.23;;
14276;SDS011;7222;57.346;12.150;2023-04-25T02:58:01;32.00;;;24.67;;
14276;SDS011;7222;57.346;12.150;2023-04-25T03:00:29;33.40;;;23.87;;
14276;SDS011;7222;57.346;12.150;2023-04-25T03:02:56;28.77;;;19.50;;
14276;SDS011;7222;57.346;12.150;2023-04-25T03:05:25;29.10;;;20.37;;
14276;SDS011;7222;57.346;12.150;2023-04-25T03:07:51;31.63;;;21.30;;
14276;SDS011;7222;57.346;12.150;2023-04-25T03:10:18;23.77;;;19.07;;
14276;SDS011;7222;57.346;12.150;2023-04-25T03:12:45;38.30;;;26.40;;
14276;SDS011;7222;57.346;12.150;2023-04-25T03:15:12;28.60;;;20.80;;
14276;SDS011;7222;57.346;12.150;2023-04-25T03:17:39;27.77;;;22.30;;
14276;SDS011;7222;57.346;12.150;2023-04-25T03:20:07;31.37;;;22.20;;
14276;SDS011;7222;57.346;12.150;2023-04-25T03:22:36;34.50;;;25.40;;
14276;SDS011;7222;57.346;12.150;2023-04-25T03:25:03;32.23;;;20.77;;
14276;SDS011;7222;57.346;12.150;2023-04-25T03:27:31;30.47;;;20.67;;
14276;SDS011;7222;57.346;12.150;2023-04-25T03:29:58;30.83;;;20.30;;
14276;SDS011;7222;57.346;12.150;2023-04-25T03:32:25;34.40;;;19.77;;
14276;SDS011;7222;57.346;12.150;2023-04-25T03:34:52;26.87;;;18.43;;
14276;SDS011;7222;57.346;12.150;2023-04-25T03:37:19;31.83;;;23.47;;
14276;SDS011;7222;57.346;12.150;2023-04-25T03:39:47;24.83;;;17.00;;
14276;SDS011;7222;57.346;12.150;2023-04-25T03:42:14;29.27;;;20.73;;
14276;SDS011;7222;57.346;12.150;2023-04-25T03:44:41;30.30;;;20.93;;
14276;SDS011;7222;57.346;12.150;2023-04-25T03:47:07;29.20;;;19.97;;
14276;SDS011;7222;57.346;12.150;2023-04-25T03:49:35;27.57;;;19.17;;
14276;SDS011;7222;57.346;12.150;2023-04-25T03:52:02;30.90;;;21.57;;
14276;SDS011;7222;57.346;12.150;2023-04-25T03:54:29;30.17;;;20.70;;
14276;SDS011;7222;57.346;12.150;2023-04-25T03:56:57;28.27;;;18.77;;
14276;SDS011;7222;57.346;12.150;2023-04-25T03:59:24;27.03;;;18.77;;
14276;SDS011;7222;57.346;12.150;2023-04-25T04:01:51;22.80;;;16.43;;
14276;SDS011;7222;57.346;12.150;2023-04-25T04:04:18;23.30;;;15.40;;
14276;SDS011;7222;57.346;12.150;2023-04-25T04:06:45;19.40;;;14.23;;
14276;SDS011;7222;57.346;12.150;2023-04-25T04:09:12;20.97;;;15.47;;
14276;SDS011;7222;57.346;12.150;2023-04-25T04:11:39;18.97;;;14.80;;
14276;SDS011;7222;57.346;12.150;2023-04-25T04:14:07;23.40;;;14.40;;
14276;SDS011;7222;57.346;12.150;2023-04-25T04:16:35;21.07;;;13.70;;
14276;SDS011;7222;57.346;12.150;2023-04-25T04:19:01;18.37;;;12.63;;
14276;SDS011;7222;57.346;12.150;2023-04-25T04:21:29;15.30;;;11.67;;
14276;SDS011;7222;57.346;12.150;2023-04-25T04:23:57;13.77;;;9.67;;
14276;SDS011;7222;57.346;12.150;2023-04-25T04:26:25;15.93;;;10.47;;
14276;SDS011;7222;57.346;12.150;2023-04-25T04:28:52;12.60;;;10.33;;
14276;SDS011;7222;57.346;12.150;2023-04-25T04:31:21;14.93;;;10.77;;
14276;SDS011;7222;57.346;12.150;2023-04-25T04:33:49;13.30;;;9.70;;
14276;SDS011;7222;57.346;12.150;2023-04-25T04:36:16;12.00;;;9.10;;
14276;SDS011;7222;57.346;12.150;2023-04-25T04:38:45;9.53;;;7.27;;
14276;SDS011;7222;57.346;12.150;2023-04-25T04:41:12;11.93;;;8.87;;
14276;SDS011;7222;57.346;12.150;2023-04-25T04:43:39;8.87;;;6.73;;
14276;SDS011;7222;57.346;12.150;2023-04-25T04:46:06;8.23;;;6.50;;
14276;SDS011;7222;57.346;12.150;2023-04-25T04:48:36;8.07;;;6.60;;
14276;SDS011;7222;57.346;12.150;2023-04-25T04:51:05;8.20;;;6.97;;
14276;SDS011;7222;57.346;12.150;2023-04-25T04:53:32;6.90;;;5.87;;
14276;SDS011;7222;57.346;12.150;2023-04-25T04:55:59;7.43;;;5.40;;
14276;SDS011;7222;57.346;12.150;2023-04-25T04:58:26;6.90;;;6.13;;
14276;SDS011;7222;57.346;12.150;2023-04-25T05:00:54;9.03;;;5.50;;
14276;SDS011;7222;57.346;12.150;2023-04-25T05:03:21;6.73;;;6.03;;
14276;SDS011;7222;57.346;12.150;2023-04-25T05:05:50;7.37;;;5.00;;
14276;SDS011;7222;57.346;12.150;2023-04-25T05:08:16;7.63;;;5.63;;
14276;SDS011;7222;57.346;12.150;2023-04-25T05:10:43;10.37;;;6.43;;
14276;SDS011;7222;57.346;12.150;2023-04-25T05:13:10;8.00;;;5.33;;
14276;SDS011;7222;57.346;12.150;2023-04-25T05:15:37;9.13;;;6.17;;
14276;SDS011;7222;57.346;12.150;2023-04-25T05:18:04;8.30;;;7.50;;
14276;SDS011;7222;57.346;12.150;2023-04-25T05:20:31;8.87;;;7.27;;
14276;SDS011;7222;57.346;12.150;2023-04-25T05:22:59;9.37;;;7.80;;
14276;SDS011;7222;57.346;12.150;2023-04-25T05:25:26;12.13;;;9.10;;
14276;SDS011;7222;57.346;12.150;2023-04-25T05:27:53;10.03;;;7.27;;
14276;SDS011;7222;57.346;12.150;2023-04-25T05:30:21;12.23;;;8.50;;
14276;SDS011;7222;57.346;12.150;2023-04-25T05:32:48;10.90;;;9.90;;
14276;SDS011;7222;57.346;12.150;2023-04-25T05:35:15;11.27;;;9.50;;
14276;SDS011;7222;57.346;12.150;2023-04-25T05:37:42;9.97;;;8.33;;
14276;SDS011;7222;57.346;12.150;2023-04-25T05:40:11;11.63;;;7.87;;
14276;SDS011;7222;57.346;12.150;2023-04-25T05:42:38;13.57;;;11.07;;
14276;SDS011;7222;57.346;12.150;2023-04-25T05:45:06;11.97;;;9.87;;
14276;SDS011;7222;57.346;12.150;2023-04-25T05:47:33;14.83;;;9.70;;
14276;SDS011;7222;57.346;12.150;2023-04-25T05:50:00;13.60;;;11.23;;
14276;SDS011;7222;57.346;12.150;2023-04-25T05:52:27;14.17;;;9.80;;
14276;SDS011;7222;57.346;12.150;2023-04-25T05:54:53;15.47;;;10.20;;
14276;SDS011;7222;57.346;12.150;2023-04-25T05:57:22;13.77;;;9.63;;
14276;SDS011;7222;57.346;12.150;2023-04-25T05:59:50;15.23;;;11.60;;
14276;SDS011;7222;57.346;12.150;2023-04-25T06:02:18;9.60;;;8.60;;
14276;SDS011;7222;57.346;12.150;2023-04-25T06:04:45;11.13;;;8.53;;
14276;SDS011;7222;57.346;12.150;2023-04-25T06:07:12;9.67;;;7.37;;
14276;SDS011;7222;57.346;12.150;2023-04-25T06:09:39;10.40;;;7.13;;
14276;SDS011;7222;57.346;12.150;2023-04-25T06:12:06;8.30;;;5.70;;
14276;SDS011;7222;57.346;12.150;2023-04-25T06:14:34;10.33;;;6.27;;
14276;SDS011;7222;57.346;12.150;2023-04-25T06:17:02;9.50;;;5.23;;
14276;SDS011;7222;57.346;12.150;2023-04-25T06:19:32;7.83;;;3.80;;
14276;SDS011;7222;57.346;12.150;2023-04-25T06:21:59;7.17;;;3.33;;
14276;SDS011;7222;57.346;12.150;2023-04-25T06:24:26;5.67;;;3.43;;
14276;SDS011;7222;57.346;12.150;2023-04-25T06:26:52;7.70;;;3.33;;
14276;SDS011;7222;57.346;12.150;2023-04-25T06:29:20;7.13;;;3.50;;
14276;SDS011;7222;57.346;12.150;2023-04-25T06:31:48;6.83;;;2.83;;
14276;SDS011;7222;57.346;12.150;2023-04-25T06:34:16;5.17;;;1.90;;
14276;SDS011;7222;57.346;12.150;2023-04-25T06:36:42;4.23;;;2.10;;
14276;SDS011;7222;57.346;12.150;2023-04-25T06:39:10;5.50;;;2.50;;
14276;SDS011;7222;57.346;12.150;2023-04-25T06:41:37;4.30;;;2.10;;
14276;SDS011;7222;57.346;12.150;2023-04-25T06:44:04;5.53;;;1.67;;
14276;SDS011;7222;57.346;12.150;2023-04-25T06:46:31;1.73;;;1.60;;
14276;SDS011;7222;57.346;12.150;2023-04-25T06:49:00;3.30;;;1.60;;
14276;SDS011;7222;57.346;12.150;2023-04-25T06:51:28;2.47;;;1.77;;
14276;SDS011;7222;57.346;12.150;2023-04-25T06:53:57;4.47;;;1.70;;
14276;SDS011;7222;57.346;12.150;2023-04-25T06:56:24;2.77;;;1.20;;
14276;SDS011;7222;57.346;12.150;2023-04-25T06:58:51;2.87;;;1.50;;
14276;SDS011;7222;57.346;12.150;2023-04-25T07:01:18;4.27;;;1.27;;
14276;SDS011;7222;57.346;12.150;2023-04-25T07:03:45;2.73;;;1.20;;
14276;SDS011;7222;57.346;12.150;2023-04-25T07:06:13;3.53;;;1.43;;
14276;SDS011;7222;57.346;12.150;2023-04-25T07:08:40;1.77;;;1.00;;
14276;SDS011;7222;57.346;12.150;2023-04-25T07:11:07;3.50;;;1.10;;
14276;SDS011;7222;57.346;12.150;2023-04-25T07:13:34;2.00;;;1.13;;
14276;SDS011;7222;57.346;12.150;2023-04-25T07:16:01;3.60;;;0.90;;
14276;SDS011;7222;57.346;12.150;2023-04-25T07:18:29;1.43;;;0.80;;
14276;SDS011;7222;57.346;12.150;2023-04-25T07:20:55;2.63;;;0.97;;
14276;SDS011;7222;57.346;12.150;2023-04-25T07:23:24;2.50;;;1.20;;
14276;SDS011;7222;57.346;12.150;2023-04-25T07:25:51;4.10;;;1.03;;
14276;SDS011;7222;57.346;12.150;2023-04-25T07:28:18;1.17;;;0.90;;
14276;SDS011;7222;57.346;12.150;2023-04-25T07:30:45;2.10;;;1.00;;
14276;SDS011;7222;57.346;12.150;2023-04-25T07:33:12;2.23;;;1.20;;
14276;SDS011;7222;57.346;12.150;2023-04-25T07:35:39;1.60;;;1.03;;
14276;SDS011;7222;57.346;12.150;2023-04-25T07:38:06;2.53;;;1.00;;
14276;SDS011;7222;57.346;12.150;2023-04-25T07:40:34;0.93;;;0.67;;
14276;SDS011;7222;57.346;12.150;2023-04-25T07:43:01;2.13;;;1.00;;
14276;SDS011;7222;57.346;12.150;2023-04-25T07:45:28;2.47;;;0.80;;
14276;SDS011;7222;57.346;12.150;2023-04-25T07:47:55;2.07;;;0.80;;
14276;SDS011;7222;57.346;12.150;2023-04-25T07:50:22;0.73;;;0.60;;
14276;SDS011;7222;57.346;12.150;2023-04-25T07:52:49;1.00;;;0.80;;
14276;SDS011;7222;57.346;12.150;2023-04-25T07:55:16;0.83;;;0.80;;
14276;SDS011;7222;57.346;12.150;2023-04-25T07:57:45;0.60;;;0.60;;
14276;SDS011;7222;57.346;12.150;2023-04-25T08:00:12;1.17;;;0.60;;
14276;SDS011;7222;57.346;12.150;2023-04-25T08:02:40;1.17;;;0.60;;
14276;SDS011;7222;57.346;12.150;2023-04-25T08:05:07;3.63;;;0.70;;
14276;SDS011;7222;57.346;12.150;2023-04-25T08:07:36;2.83;;;0.73;;
14276;SDS011;7222;57.346;12.150;2023-04-25T08:10:03;2.70;;;0.60;;
14276;SDS011;7222;57.346;12.150;2023-04-25T08:12:32;1.50;;;0.70;;
14276;SDS011;7222;57.346;12.150;2023-04-25T08:15:00;2.73;;;1.17;;
14276;SDS011;7222;57.346;12.150;2023-04-25T08:17:28;2.17;;;1.17;;
14276;SDS011;7222;57.346;12.150;2023-04-25T08:19:55;1.03;;;0.83;;
14276;SDS011;7222;57.346;12.150;2023-04-25T08:22:22;0.53;;;0.50;;
14276;SDS011;7222;57.346;12.150;2023-04-25T08:24:49;1.17;;;0.50;;
14276;SDS011;7222;57.346;12.150;2023-04-25T08:27:16;1.43;;;0.57;;
14276;SDS011;7222;57.346;12.150;2023-04-25T08:29:45;1.60;;;0.73;;
14276;SDS011;7222;57.346;12.150;2023-04-25T08:32:14;1.07;;;0.70;;
14276;SDS011;7222;57.346;12.150;2023-04-25T08:34:41;0.50;;;0.50;;
14276;SDS011;7222;57.346;12.150;2023-04-25T08:37:09;0.47;;;0.47;;
14276;SDS011;7222;57.346;12.150;2023-04-25T08:39:36;1.63;;;0.60;;
14276;SDS011;7222;57.346;12.150;2023-04-25T08:42:05;0.90;;;0.60;;
14276;SDS011;7222;57.346;12.150;2023-04-25T08:44:33;0.53;;;0.53;;
14276;SDS011;7222;57.346;12.150;2023-04-25T08:47:01;2.53;;;0.90;;
14276;SDS011;7222;57.346;12.150;2023-04-25T08:49:32;1.30;;;0.93;;
14276;SDS011;7222;57.346;12.150;2023-04-25T08:51:59;2.30;;;0.70;;
14276;SDS011;7222;57.346;12.150;2023-04-25T08:54:27;1.20;;;0.60;;
14276;SDS011;7222;57.346;12.150;2023-04-25T08:56:56;2.93;;;0.87;;
14276;SDS011;7222;57.346;12.150;2023-04-25T08:59:24;1.57;;;0.60;;
14276;SDS011;7222;57.346;12.150;2023-04-25T09:01:51;0.77;;;0.50;;
14276;SDS011;7222;57.346;12.150;2023-04-25T09:04:19;1.50;;;0.70;;
14276;SDS011;7222;57.346;12.150;2023-04-25T09:06:47;0.47;;;0.47;;
14276;SDS011;7222;57.346;12.150;2023-04-25T09:09:14;0.97;;;0.43;;
14276;SDS011;7222;57.346;12.150;2023-04-25T09:11:41;0.80;;;0.73;;
14276;SDS011;7222;57.346;12.150;2023-04-25T09:14:12;0.57;;;0.50;;
14276;SDS011;7222;57.346;12.150;2023-04-25T09:16:58;1.80;;;0.73;;
14276;SDS011;7222;57.346;12.150;2023-04-25T09:19:28;3.30;;;0.90;;
14276;SDS011;7222;57.346;12.150;2023-04-25T09:21:57;0.87;;;0.70;;
14276;SDS011;7222;57.346;12.150;2023-04-25T09:24:32;2.30;;;0.70;;
14276;SDS011;7222;57.346;12.150;2023-04-25T09:27:02;1.20;;;0.83;;
14276;SDS011;7222;57.346;12.150;2023-04-25T09:29:30;0.63;;;0.60;;
14276;SDS011;7222;57.346;12.150;2023-04-25T09:32:15;1.17;;;0.60;;
14276;SDS011;7222;57.346;12.150;2023-04-25T09:34:44;0.60;;;0.60;;
14276;SDS011;7222;57.346;12.150;2023-04-25T09:37:18;2.40;;;0.80;;
14276;SDS011;7222;57.346;12.150;2023-04-25T09:39:45;1.07;;;0.60;;
14276;SDS011;7222;57.346;12.150;2023-04-25T09:42:13;1.43;;;0.70;;
14276;SDS011;7222;57.346;12.150;2023-04-25T09:44:42;0.83;;;0.50;;
14276;SDS011;7222;57.346;12.150;2023-04-25T09:47:10;2.43;;;0.80;;
14276;SDS011;7222;57.346;12.150;2023-04-25T09:49:39;1.80;;;0.80;;
14276;SDS011;7222;57.346;12.150;2023-04-25T09:52:08;1.97;;;1.07;;
14276;SDS011;7222;57.346;12.150;2023-04-25T09:54:37;0.80;;;0.80;;
14276;SDS011;7222;57.346;12.150;2023-04-25T09:57:06;1.03;;;0.80;;
14276;SDS011;7222;57.346;12.150;2023-04-25T09:59:38;0.30;;;0.30;;
14276;SDS011;7222;57.346;12.150;2023-04-25T10:02:07;0.67;;;0.50;;
14276;SDS011;7222;57.346;12.150;2023-04-25T10:04:35;0.40;;;0.40;;
14276;SDS011;7222;57.346;12.150;2023-04-25T10:07:05;0.67;;;0.50;;
14276;SDS011;7222;57.346;12.150;2023-04-25T10:09:33;2.00;;;0.57;;
14276;SDS011;7222;57.346;12.150;2023-04-25T10:12:03;1.10;;;0.40;;
14276;SDS011;7222;57.346;12.150;2023-04-25T10:14:32;0.50;;;0.40;;
14276;SDS011;7222;57.346;12.150;2023-04-25T10:17:00;1.07;;;0.60;;
14276;SDS011;7222;57.346;12.150;2023-04-25T10:19:27;1.03;;;0.40;;
14276;SDS011;7222;57.346;12.150;2023-04-25T10:21:55;0.97;;;0.40;;
14276;SDS011;7222;57.346;12.150;2023-04-25T10:24:30;0.40;;;0.37;;
14276;SDS011;7222;57.346;12.150;2023-04-25T10:26:57;0.40;;;0.40;;
14276;SDS011;7222;57.346;12.150;2023-04-25T10:29:26;2.10;;;0.50;;
14276;SDS011;7222;57.346;12.150;2023-04-25T10:31:53;0.77;;;0.60;;
14276;SDS011;7222;57.346;12.150;2023-04-25T10:34:23;0.87;;;0.60;;
14276;SDS011;7222;57.346;12.150;2023-04-25T10:37:03;1.00;;;0.50;;
14276;SDS011;7222;57.346;12.150;2023-04-25T10:39:30;1.00;;;0.40;;
14276;SDS011;7222;57.346;12.150;2023-04-25T10:41:59;2.13;;;0.67;;
14276;SDS011;7222;57.346;12.150;2023-04-25T10:44:30;1.30;;;0.60;;
14276;SDS011;7222;57.346;12.150;2023-04-25T10:46:58;0.50;;;0.40;;
14276;SDS011;7222;57.346;12.150;2023-04-25T10:49:33;1.07;;;0.70;;
14276;SDS011;7222;57.346;12.150;2023-04-25T10:52:17;1.93;;;0.60;;
14276;SDS011;7222;57.346;12.150;2023-04-25T10:54:51;1.33;;;0.70;;
14276;SDS011;7222;57.346;12.150;2023-04-25T10:57:31;1.67;;;0.70;;
14276;SDS011;7222;57.346;12.150;2023-04-25T11:00:08;0.60;;;0.60;;
14276;SDS011;7222;57.346;12.150;2023-04-25T11:02:38;1.83;;;0.80;;
14276;SDS011;7222;57.346;12.150;2023-04-25T11:05:10;0.60;;;0.60;;
14276;SDS011;7222;57.346;12.150;2023-04-25T11:07:44;0.60;;;0.60;;
14276;SDS011;7222;57.346;12.150;2023-04-25T11:10:16;1.17;;;1.00;;
14276;SDS011;7222;57.346;12.150;2023-04-25T11:12:44;0.80;;;0.80;;
14276;SDS011;7222;57.346;12.150;2023-04-25T11:15:13;0.60;;;0.60;;
14276;SDS011;7222;57.346;12.150;2023-04-25T11:17:41;0.87;;;0.60;;
14276;SDS011;7222;57.346;12.150;2023-04-25T11:20:09;0.60;;;0.60;;
14276;SDS011;7222;57.346;12.150;2023-04-25T11:22:39;0.70;;;0.67;;
14276;SDS011;7222;57.346;12.150;2023-04-25T11:25:07;0.60;;;0.60;;
14276;SDS011;7222;57.346;12.150;2023-04-25T11:27:37;0.83;;;0.73;;
14276;SDS011;7222;57.346;12.150;2023-04-25T11:30:14;1.20;;;0.60;;
14276;SDS011;7222;57.346;12.150;2023-04-25T11:32:42;0.70;;;0.70;;
14276;SDS011;7222;57.346;12.150;2023-04-25T11:35:10;0.70;;;0.70;;
14276;SDS011;7222;57.346;12.150;2023-04-25T11:37:38;2.00;;;0.63;;
14276;SDS011;7222;57.346;12.150;2023-04-25T11:40:06;1.23;;;0.80;;
14276;SDS011;7222;57.346;12.150;2023-04-25T11:42:34;1.20;;;0.90;;
14276;SDS011;7222;57.346;12.150;2023-04-25T11:45:03;0.80;;;0.80;;
14276;SDS011;7222;57.346;12.150;2023-04-25T11:47:33;2.87;;;1.10;;
14276;SDS011;7222;57.346;12.150;2023-04-25T11:50:00;0.90;;;0.87;;
14276;SDS011;7222;57.346;12.150;2023-04-25T11:52:38;1.43;;;1.00;;
14276;SDS011;7222;57.346;12.150;2023-04-25T11:55:06;1.67;;;0.90;;
14276;SDS011;7222;57.346;12.150;2023-04-25T11:57:34;2.20;;;0.80;;
14276;SDS011;7222;57.346;12.150;2023-04-25T12:00:06;1.23;;;0.80;;
14276;SDS011;7222;57.346;12.150;2023-04-25T12:02:37;0.70;;;0.70;;
14276;SDS011;7222;57.346;12.150;2023-04-25T12:05:07;1.67;;;0.90;;
14276;SDS011;7222;57.346;12.150;2023-04-25T12:07:34;0.90;;;0.90;;
14276;SDS011;7222;57.346;12.150;2023-04-25T12:10:05;1.30;;;0.90;;
14276;SDS011;7222;57.346;12.150;2023-04-25T12:12:34;0.90;;;0.90;;
14276;SDS011;7222;57.346;12.150;2023-04-25T12:15:09;0.90;;;0.77;;
14276;SDS011;7222;57.346;12.150;2023-04-25T12:17:38;1.17;;;0.90;;
14276;SDS011;7222;57.346;12.150;2023-04-25T12:20:06;1.10;;;1.10;;
14276;SDS011;7222;57.346;12.150;2023-04-25T12:22:34;1.53;;;1.10;;
14276;SDS011;7222;57.346;12.150;2023-04-25T12:25:02;1.50;;;1.10;;
14276;SDS011;7222;57.346;12.150;2023-04-25T12:27:30;0.93;;;0.93;;
14276;SDS011;7222;57.346;12.150;2023-04-25T12:29:59;1.73;;;1.00;;
14276;SDS011;7222;57.346;12.150;2023-04-25T12:32:26;1.13;;;1.10;;
14276;SDS011;7222;57.346;12.150;2023-04-25T12:34:55;1.13;;;1.10;;
14276;SDS011;7222;57.346;12.150;2023-04-25T12:37:22;1.17;;;1.03;;
14276;SDS011;7222;57.346;12.150;2023-04-25T12:39:49;0.97;;;0.97;;
14276;SDS011;7222;57.346;12.150;2023-04-25T12:42:16;1.50;;;0.90;;
14276;SDS011;7222;57.346;12.150;2023-04-25T12:44:43;1.60;;;1.20;;
14276;SDS011;7222;57.346;12.150;2023-04-25T12:47:11;1.33;;;1.20;;
14276;SDS011;7222;57.346;12.150;2023-04-25T12:49:38;0.93;;;0.60;;
14276;SDS011;7222;57.346;12.150;2023-04-25T12:52:07;1.13;;;0.97;;
14276;SDS011;7222;57.346;12.150;2023-04-25T12:54:34;2.43;;;1.20;;
14276;SDS011;7222;57.346;12.150;2023-04-25T12:57:01;1.00;;;1.00;;
14276;SDS011;7222;57.346;12.150;2023-04-25T12:59:29;1.67;;;0.97;;
14276;SDS011;7222;57.346;12.150;2023-04-25T13:01:56;1.10;;;1.00;;
14276;SDS011;7222;57.346;12.150;2023-04-25T13:04:23;1.93;;;0.97;;
14276;SDS011;7222;57.346;12.150;2023-04-25T13:06:50;2.00;;;1.20;;
14276;SDS011;7222;57.346;12.150;2023-04-25T13:09:18;1.20;;;0.83;;
14276;SDS011;7222;57.346;12.150;2023-04-25T13:11:45;1.07;;;0.80;;
14276;SDS011;7222;57.346;12.150;2023-04-25T13:14:12;1.23;;;1.10;;
14276;SDS011;7222;57.346;12.150;2023-04-25T13:16:40;1.77;;;1.00;;
14276;SDS011;7222;57.346;12.150;2023-04-25T13:19:07;1.30;;;1.00;;
14276;SDS011;7222;57.346;12.150;2023-04-25T13:21:36;3.23;;;1.10;;
14276;SDS011;7222;57.346;12.150;2023-04-25T13:24:03;1.20;;;0.80;;
14276;SDS011;7222;57.346;12.150;2023-04-25T13:26:32;0.80;;;0.80;;
14276;SDS011;7222;57.346;12.150;2023-04-25T13:28:59;2.40;;;1.00;;
14276;SDS011;7222;57.346;12.150;2023-04-25T13:31:28;1.30;;;1.03;;
14276;SDS011;7222;57.346;12.150;2023-04-25T13:33:55;1.60;;;0.87;;
14276;SDS011;7222;57.346;12.150;2023-04-25T13:36:22;0.90;;;0.90;;
14276;SDS011;7222;57.346;12.150;2023-04-25T13:38:50;0.90;;;0.80;;
14276;SDS011;7222;57.346;12.150;2023-04-25T13:41:17;1.00;;;0.90;;
14276;SDS011;7222;57.346;12.150;2023-04-25T13:43:46;1.57;;;1.00;;
14276;SDS011;7222;57.346;12.150;2023-04-25T13:46:13;0.80;;;0.80;;
14276;SDS011;7222;57.346;12.150;2023-04-25T13:48:41;1.60;;;1.00;;
14276;SDS011;7222;57.346;12.150;2023-04-25T13:51:13;1.80;;;0.93;;
14276;SDS011;7222;57.346;12.150;2023-04-25T13:53:41;2.77;;;0.83;;
14276;SDS011;7222;57.346;12.150;2023-04-25T13:56:08;2.50;;;0.90;;
14276;SDS011;7222;57.346;12.150;2023-04-25T13:58:36;1.03;;;0.93;;
14276;SDS011;7222;57.346;12.150;2023-04-25T14:01:05;1.00;;;1.00;;
14276;SDS011;7222;57.346;12.150;2023-04-25T14:03:32;0.90;;;0.90;;
14276;SDS011;7222;57.346;12.150;2023-04-25T14:05:59;1.67;;;1.10;;
14276;SDS011;7222;57.346;12.150;2023-04-25T14:08:26;1.40;;;1.20;;
14276;SDS011;7222;57.346;12.150;2023-04-25T14:10:53;1.37;;;0.90;;
14276;SDS011;7222;57.346;12.150;2023-04-25T14:13:20;2.43;;;1.30;;
14276;SDS011;7222;57.346;12.150;2023-04-25T14:15:48;2.87;;;1.43;;
14276;SDS011;7222;57.346;12.150;2023-04-25T14:18:18;1.33;;;1.00;;
14276;SDS011;7222;57.346;12.150;2023-04-25T14:20:45;0.90;;;0.90;;
14276;SDS011;7222;57.346;12.150;2023-04-25T14:23:12;1.00;;;1.00;;
14276;SDS011;7222;57.346;12.150;2023-04-25T14:25:39;2.80;;;1.00;;
14276;SDS011;7222;57.346;12.150;2023-04-25T14:28:07;0.63;;;0.63;;
14276;SDS011;7222;57.346;12.150;2023-04-25T14:30:34;0.90;;;0.90;;
14276;SDS011;7222;57.346;12.150;2023-04-25T14:33:01;1.70;;;0.90;;
14276;SDS011;7222;57.346;12.150;2023-04-25T14:35:30;2.10;;;1.10;;
14276;SDS011;7222;57.346;12.150;2023-04-25T14:37:57;3.13;;;1.00;;
14276;SDS011;7222;57.346;12.150;2023-04-25T14:40:23;2.33;;;1.13;;
14276;SDS011;7222;57.346;12.150;2023-04-25T14:42:52;1.30;;;0.93;;